Time;durP1;ratioP1;P1;durP2;ratioP2;P2;SDS_P1;SDS_P2;PMS_P1;PMS_P2;Temp;Humidity;BMP_temperature;BMP_pressure;BME280_temperature;BME280_humidity;BME280_pressure;Samples;Min_cycle;Max_cycle;Signal;HPM_P1;HPM_P2
2023/08/20 00:00:52;;;;;;;0.20;0.20;;;17.30;99.90;;;;;;5051764;28;20037;-80
2023/08/20 00:03:18;;;;;;;0.20;0.20;;;17.30;99.90;;;;;;5053412;28;20115;-80
2023/08/20 00:05:44;;;;;;;0.20;0.20;;;17.20;99.90;;;;;;5052344;28;20139;-80
2023/08/20 00:08:09;;;;;;;0.10;0.10;;;17.20;99.90;;;;;;5052494;28;20045;-81
2023/08/20 00:10:35;;;;;;;0.20;0.20;;;17.20;99.90;;;;;;5067862;28;20392;-80
2023/08/20 00:13:01;;;;;;;0.20;0.20;;;17.20;99.90;;;;;;5068804;28;20044;-80
2023/08/20 00:15:27;;;;;;;0.10;0.10;;;17.20;99.90;;;;;;5048191;28;20053;-80
2023/08/20 00:17:55;;;;;;;0.20;0.20;;;17.20;99.90;;;;;;5050041;28;20041;-81
2023/08/20 00:20:21;;;;;;;0.20;0.20;;;17.10;99.90;;;;;;5048948;28;20098;-80
2023/08/20 00:22:47;;;;;;;0.20;0.20;;;17.10;99.90;;;;;;5050808;28;20041;-80
2023/08/20 00:25:15;;;;;;;0.13;0.13;;;17.10;99.90;;;;;;5042348;28;20082;-80
2023/08/20 00:27:41;;;;;;;0.20;0.20;;;17.10;99.90;;;;;;5042513;28;20038;-80
2023/08/20 00:30:08;;;;;;;0.20;0.20;;;17.00;99.90;;;;;;5044074;28;20049;-81
2023/08/20 00:32:34;;;;;;;0.20;0.20;;;17.00;99.90;;;;;;5048657;28;20052;-81
2023/08/20 00:35:00;;;;;;;0.10;0.10;;;17.00;99.90;;;;;;5046725;28;20045;-80
2023/08/20 00:37:26;;;;;;;0.20;0.20;;;17.00;99.90;;;;;;5047326;28;20079;-80
2023/08/20 00:39:51;;;;;;;0.20;0.20;;;17.00;99.90;;;;;;5044253;28;20130;-81
2023/08/20 00:42:17;;;;;;;0.10;0.10;;;16.90;99.90;;;;;;5040782;28;20511;-81
2023/08/20 00:44:46;;;;;;;0.20;0.20;;;16.90;99.90;;;;;;5045730;28;20052;-80
2023/08/20 00:47:13;;;;;;;0.20;0.20;;;16.90;99.90;;;;;;5036998;28;20441;-80
2023/08/20 00:49:40;;;;;;;0.20;0.20;;;16.90;99.90;;;;;;5048387;28;20044;-81
2023/08/20 00:52:09;;;;;;;0.20;0.20;;;16.90;99.90;;;;;;5049700;28;20045;-80
2023/08/20 00:54:35;;;;;;;0.20;0.20;;;16.90;99.90;;;;;;5048240;28;20048;-80
2023/08/20 00:57:02;;;;;;;0.20;0.20;;;16.90;99.90;;;;;;5044585;28;20108;-80
2023/08/20 00:59:29;;;;;;;0.20;0.20;;;16.80;99.90;;;;;;5048151;28;20091;-80
2023/08/20 01:01:55;;;;;;;0.20;0.20;;;16.80;99.90;;;;;;5047598;28;20214;-80
2023/08/20 01:04:21;;;;;;;0.20;0.20;;;16.80;99.90;;;;;;5050212;28;20049;-80
2023/08/20 01:06:55;;;;;;;0.20;0.20;;;16.80;99.90;;;;;;5049230;28;20506;-80
2023/08/20 01:09:48;;;;;;;0.20;0.20;;;16.80;99.90;;;;;;5046573;28;20053;-80
2023/08/20 01:12:16;;;;;;;0.20;0.20;;;16.80;99.90;;;;;;5045136;28;20408;-80
2023/08/20 01:14:41;;;;;;;0.20;0.20;;;16.80;99.90;;;;;;5050068;28;20060;-80
2023/08/20 01:17:07;;;;;;;0.20;0.20;;;16.70;99.90;;;;;;5047908;28;20664;-80
2023/08/20 01:19:34;;;;;;;0.20;0.20;;;16.70;99.90;;;;;;5065895;28;20047;-80
2023/08/20 01:22:08;;;;;;;0.20;0.20;;;16.70;99.90;;;;;;5048634;28;20056;-80
2023/08/20 01:25:16;;;;;;;0.17;0.17;;;16.70;99.90;;;;;;5049883;28;20051;-81
2023/08/20 01:28:09;;;;;;;0.20;0.20;;;16.70;99.90;;;;;;5031975;28;20557;-80
2023/08/20 01:30:36;;;;;;;0.17;0.17;;;16.70;99.90;;;;;;5054162;28;20090;-80
2023/08/20 01:33:02;;;;;;;0.20;0.20;;;16.70;99.90;;;;;;5052773;28;20058;-81
2023/08/20 01:35:28;;;;;;;0.20;0.20;;;16.60;99.90;;;;;;5067976;28;20106;-81
2023/08/20 01:37:54;;;;;;;0.20;0.20;;;16.60;99.90;;;;;;5050679;28;20040;-81
2023/08/20 01:40:19;;;;;;;0.20;0.20;;;16.60;99.90;;;;;;5045181;28;20052;-80
2023/08/20 01:42:45;;;;;;;0.20;0.20;;;16.60;99.90;;;;;;5046960;28;20484;-80
2023/08/20 01:45:11;;;;;;;0.20;0.20;;;16.60;99.90;;;;;;5066507;28;20037;-80
2023/08/20 01:47:36;;;;;;;0.15;0.15;;;16.60;99.90;;;;;;5067558;28;20392;-80
2023/08/20 01:50:02;;;;;;;0.20;0.20;;;16.50;99.90;;;;;;5067692;28;20048;-80
2023/08/20 01:52:29;;;;;;;0.20;0.20;;;16.50;99.90;;;;;;5046611;28;20526;-80
2023/08/20 01:54:55;;;;;;;0.20;0.20;;;16.50;99.90;;;;;;5049433;28;20484;-80
2023/08/20 01:57:20;;;;;;;0.10;0.10;;;16.50;99.90;;;;;;5066557;28;20093;-80
2023/08/20 01:59:47;;;;;;;0.15;0.15;;;16.40;99.90;;;;;;5067348;28;20123;-80
2023/08/20 02:02:13;;;;;;;0.20;0.20;;;16.40;99.90;;;;;;5048911;28;20045;-80
2023/08/20 02:04:39;;;;;;;0.20;0.20;;;16.40;99.90;;;;;;5049749;28;20033;-81
2023/08/20 02:07:04;;;;;;;0.20;0.20;;;16.40;99.90;;;;;;5066051;28;20151;-80
2023/08/20 02:09:30;;;;;;;0.20;0.20;;;16.40;99.90;;;;;;5044862;28;20037;-80
2023/08/20 02:11:56;;;;;;;0.20;0.20;;;16.40;99.90;;;;;;5066091;28;20040;-80
2023/08/20 02:14:21;;;;;;;0.20;0.20;;;16.40;99.90;;;;;;5065656;28;20398;-81
2023/08/20 02:16:48;;;;;;;0.20;0.20;;;16.30;99.90;;;;;;5048657;28;20051;-80
2023/08/20 02:19:14;;;;;;;0.20;0.20;;;16.40;99.90;;;;;;5048145;28;20115;-80
2023/08/20 02:21:40;;;;;;;0.20;0.20;;;16.40;99.90;;;;;;5047530;28;20143;-81
2023/08/20 02:24:06;;;;;;;0.20;0.20;;;16.40;99.90;;;;;;5064471;28;20028;-80
2023/08/20 02:26:32;;;;;;;0.10;0.10;;;16.30;99.90;;;;;;5063170;28;20098;-80
2023/08/20 02:28:58;;;;;;;0.10;0.10;;;16.40;99.90;;;;;;5045984;28;20045;-80
2023/08/20 02:31:24;;;;;;;0.20;0.20;;;16.30;99.90;;;;;;5046924;28;20044;-80
2023/08/20 02:33:50;;;;;;;0.10;0.10;;;16.30;99.90;;;;;;5048281;28;20044;-80
2023/08/20 02:36:15;;;;;;;0.13;0.13;;;16.30;99.90;;;;;;5068475;28;20040;-80
2023/08/20 02:38:41;;;;;;;0.15;0.15;;;16.30;99.90;;;;;;5053119;28;20403;-80
2023/08/20 02:41:06;;;;;;;0.20;0.20;;;16.30;99.90;;;;;;5071155;28;20435;-80
2023/08/20 02:43:32;;;;;;;0.10;0.10;;;16.30;99.90;;;;;;5054305;28;20055;-80
2023/08/20 02:45:58;;;;;;;0.10;0.10;;;16.30;99.90;;;;;;5053388;28;20569;-81
2023/08/20 02:48:26;;;;;;;0.10;0.10;;;16.20;99.90;;;;;;5050793;28;20037;-81
2023/08/20 02:50:54;;;;;;;0.20;0.20;;;16.30;99.90;;;;;;5045656;28;20068;-80
2023/08/20 02:53:20;;;;;;;0.20;0.20;;;16.30;99.90;;;;;;5064132;28;20041;-81
2023/08/20 02:55:46;;;;;;;0.10;0.10;;;16.20;99.90;;;;;;5047968;28;20051;-81
2023/08/20 02:58:12;;;;;;;0.10;0.10;;;16.20;99.90;;;;;;5051223;28;20040;-80
2023/08/20 03:00:37;;;;;;;0.20;0.20;;;16.20;99.90;;;;;;5049414;28;20041;-80
2023/08/20 03:03:07;;;;;;;0.20;0.20;;;;;;;;;;5050821;28;20091;-80
2023/08/20 03:05:32;;;;;;;0.20;0.20;;;16.20;99.90;;;;;;5053003;28;20045;-80
2023/08/20 03:07:58;;;;;;;0.10;0.10;;;16.10;99.90;;;;;;5048131;28;20043;-80
2023/08/20 03:10:24;;;;;;;0.10;0.10;;;16.10;99.90;;;;;;5061216;28;20055;-79
2023/08/20 03:12:50;;;;;;;0.10;0.10;;;16.10;99.90;;;;;;5070484;28;20036;-80
2023/08/20 03:15:15;;;;;;;0.20;0.20;;;16.10;99.90;;;;;;5054038;28;20056;-80
2023/08/20 03:17:41;;;;;;;0.20;0.20;;;16.10;99.90;;;;;;5073052;28;20044;-80
2023/08/20 03:20:07;;;;;;;0.10;0.10;;;16.10;99.90;;;;;;5072976;28;20476;-82
2023/08/20 03:22:35;;;;;;;0.20;0.20;;;16.10;99.90;;;;;;5071463;28;20052;-80
2023/08/20 03:25:01;;;;;;;0.20;0.20;;;16.10;99.90;;;;;;5050197;28;20462;-80
2023/08/20 03:27:27;;;;;;;0.20;0.20;;;16.10;99.90;;;;;;5043100;28;20048;-80
2023/08/20 03:29:53;;;;;;;0.20;0.20;;;16.10;99.90;;;;;;5048010;28;20128;-81
2023/08/20 03:32:18;;;;;;;0.10;0.10;;;16.10;99.90;;;;;;5031242;28;20048;-80
2023/08/20 03:34:44;;;;;;;0.17;0.17;;;16.10;99.90;;;;;;5035324;28;20049;-80
2023/08/20 03:37:10;;;;;;;0.10;0.10;;;16.10;99.90;;;;;;5049166;28;20068;-80
2023/08/20 03:39:35;;;;;;;0.10;0.10;;;16.10;99.90;;;;;;5068826;28;20113;-80
2023/08/20 03:42:01;;;;;;;0.20;0.20;;;16.10;99.90;;;;;;5071945;28;20041;-80
2023/08/20 03:44:27;;;;;;;0.20;0.20;;;16.10;99.90;;;;;;5054021;28;20076;-80
2023/08/20 03:46:52;;;;;;;0.10;0.10;;;16.10;99.90;;;;;;5051701;28;20078;-80
2023/08/20 03:49:18;;;;;;;0.10;0.10;;;16.10;99.90;;;;;;5053875;28;20089;-80
2023/08/20 03:51:47;;;;;;;0.10;0.10;;;16.10;99.90;;;;;;5068011;28;20036;-80
2023/08/20 03:54:12;;;;;;;0.17;0.17;;;16.10;99.90;;;;;;5049153;28;20123;-80
2023/08/20 03:56:38;;;;;;;0.20;0.20;;;16.10;99.90;;;;;;5052898;28;20448;-80
2023/08/20 03:59:04;;;;;;;0.15;0.15;;;16.00;99.90;;;;;;5068211;28;20115;-80
2023/08/20 04:01:30;;;;;;;0.10;0.10;;;16.10;99.90;;;;;;5062977;28;20686;-79
2023/08/20 04:03:55;;;;;;;0.10;0.10;;;16.00;99.90;;;;;;5065086;28;20041;-80
2023/08/20 04:06:21;;;;;;;0.10;0.10;;;16.00;99.90;;;;;;5066330;28;20036;-80
2023/08/20 04:08:47;;;;;;;0.10;0.10;;;16.00;99.90;;;;;;5053354;28;20033;-79
2023/08/20 04:11:12;;;;;;;0.10;0.10;;;16.00;99.90;;;;;;5051305;28;20637;-80
2023/08/20 04:13:39;;;;;;;0.10;0.10;;;16.00;99.90;;;;;;5033563;28;20080;-80
2023/08/20 04:16:05;;;;;;;0.20;0.20;;;16.00;99.90;;;;;;5051621;28;20106;-80
2023/08/20 04:18:34;;;;;;;0.10;0.10;;;16.20;99.90;;;;;;5033119;28;20485;-80
2023/08/20 04:20:59;;;;;;;0.20;0.20;;;15.90;99.90;;;;;;5045617;28;20048;-80
2023/08/20 04:23:25;;;;;;;0.20;0.20;;;16.00;99.90;;;;;;5053184;28;20045;-81
2023/08/20 04:25:51;;;;;;;0.20;0.20;;;15.90;99.90;;;;;;5051764;28;20067;-80
2023/08/20 04:28:17;;;;;;;0.20;0.20;;;16.00;99.90;;;;;;5052353;28;20481;-81
2023/08/20 04:30:43;;;;;;;0.20;0.20;;;16.00;99.90;;;;;;5053730;28;20032;-81
2023/08/20 04:33:09;;;;;;;0.20;0.20;;;16.00;99.90;;;;;;5046218;28;20057;-80
2023/08/20 04:35:35;;;;;;;0.10;0.10;;;16.00;99.90;;;;;;5036459;28;20075;-80
2023/08/20 04:38:02;;;;;;;0.20;0.20;;;16.00;99.90;;;;;;5044148;28;20895;-80
2023/08/20 04:40:28;;;;;;;0.20;0.20;;;16.00;99.90;;;;;;5030527;28;20036;-80
2023/08/20 04:42:53;;;;;;;0.20;0.20;;;16.00;99.90;;;;;;5038519;28;20392;-80
2023/08/20 04:45:19;;;;;;;0.20;0.20;;;16.00;99.90;;;;;;5069778;28;20053;-80
2023/08/20 04:47:48;;;;;;;0.10;0.10;;;16.00;99.90;;;;;;5069593;28;20388;-80
2023/08/20 04:50:14;;;;;;;0.10;0.10;;;16.00;99.90;;;;;;5052868;28;20045;-80
2023/08/20 04:52:40;;;;;;;0.20;0.20;;;16.00;99.90;;;;;;5053470;28;20089;-81
2023/08/20 04:55:07;;;;;;;0.20;0.20;;;16.10;99.90;;;;;;5050932;28;20042;-80
2023/08/20 04:57:36;;;;;;;0.10;0.10;;;16.10;99.90;;;;;;5050653;28;20400;-81
2023/08/20 05:00:02;;;;;;;0.20;0.20;;;16.40;99.90;;;;;;5068940;28;20462;-80
2023/08/20 05:02:28;;;;;;;0.20;0.20;;;16.10;99.90;;;;;;5070326;28;20036;-81
2023/08/20 05:04:53;;;;;;;0.10;0.10;;;16.10;99.90;;;;;;5052874;28;20079;-81
2023/08/20 05:07:20;;;;;;;0.20;0.20;;;16.10;99.90;;;;;;5047892;28;20081;-80
2023/08/20 05:09:45;;;;;;;0.10;0.10;;;16.20;99.90;;;;;;5051199;28;20044;-81
2023/08/20 05:12:11;;;;;;;0.20;0.20;;;16.20;99.90;;;;;;5070232;28;20098;-80
2023/08/20 05:14:38;;;;;;;0.20;0.20;;;16.20;99.90;;;;;;5047265;28;20071;-79
2023/08/20 05:17:04;;;;;;;0.20;0.20;;;16.30;99.90;;;;;;5045348;28;20138;-80
2023/08/20 05:19:32;;;;;;;0.20;0.20;;;16.30;99.90;;;;;;5047213;28;20045;-81
2023/08/20 05:21:58;;;;;;;0.20;0.20;;;16.30;99.90;;;;;;5047754;28;20049;-80
2023/08/20 05:24:25;;;;;;;0.10;0.10;;;16.40;99.90;;;;;;5032102;28;20049;-81
2023/08/20 05:27:14;;;;;;;0.13;0.13;;;16.40;99.90;;;;;;5046528;28;20048;-80
2023/08/20 05:29:40;;;;;;;0.10;0.10;;;16.40;99.90;;;;;;5036301;28;20045;-80
2023/08/20 05:32:07;;;;;;;0.10;0.10;;;16.50;99.90;;;;;;5061367;28;20044;-79
2023/08/20 05:34:32;;;;;;;0.10;0.10;;;16.50;99.90;;;;;;5049762;28;20134;-80
2023/08/20 05:36:58;;;;;;;0.10;0.10;;;16.60;99.90;;;;;;5047182;28;20037;-80
2023/08/20 05:39:25;;;;;;;0.20;0.20;;;16.60;99.90;;;;;;5047875;28;20036;-81
2023/08/20 05:41:52;;;;;;;0.20;0.20;;;16.70;99.90;;;;;;5043556;28;20051;-81
2023/08/20 05:44:17;;;;;;;0.10;0.10;;;16.70;99.90;;;;;;5064165;28;20041;-81
2023/08/20 05:46:43;;;;;;;0.10;0.10;;;16.70;99.90;;;;;;5047636;28;20040;-80
2023/08/20 05:49:09;;;;;;;0.10;0.10;;;16.80;99.90;;;;;;5065113;28;20072;-81
2023/08/20 05:51:34;;;;;;;0.10;0.10;;;16.90;99.90;;;;;;5068588;28;20025;-80
2023/08/20 05:54:00;;;;;;;0.10;0.10;;;16.90;99.90;;;;;;5056233;28;20408;-80
2023/08/20 05:56:26;;;;;;;0.10;0.10;;;16.90;99.90;;;;;;5071532;28;20395;-80
2023/08/20 05:58:52;;;;;;;0.17;0.17;;;17.00;99.90;;;;;;5076956;28;20041;-80
2023/08/20 06:01:17;;;;;;;0.20;0.20;;;17.10;99.90;;;;;;5069123;28;20045;-81
2023/08/20 06:03:43;;;;;;;0.15;0.15;;;17.10;99.90;;;;;;5069780;28;20071;-80
2023/08/20 06:06:09;;;;;;;0.20;0.20;;;17.20;99.90;;;;;;5068652;28;20045;-80
2023/08/20 06:08:34;;;;;;;0.20;0.20;;;17.20;99.90;;;;;;5041724;28;20045;-81
2023/08/20 06:11:00;;;;;;;0.20;0.20;;;17.30;99.90;;;;;;5040933;28;20060;-81
2023/08/20 06:13:26;;;;;;;0.17;0.17;;;17.30;99.90;;;;;;5071628;28;20044;-81
2023/08/20 06:15:51;;;;;;;0.20;0.20;;;17.40;99.90;;;;;;5072647;28;20060;-79
2023/08/20 06:18:26;;;;;;;0.10;0.10;;;17.40;99.90;;;;;;5073271;28;20041;-81
2023/08/20 06:20:54;;;;;;;0.20;0.20;;;17.50;99.90;;;;;;5074322;28;20051;-81
2023/08/20 06:23:20;;;;;;;0.20;0.20;;;17.60;99.90;;;;;;5056318;28;20395;-81
2023/08/20 06:25:46;;;;;;;0.10;0.10;;;17.60;99.90;;;;;;5053790;28;20040;-81
2023/08/20 06:28:12;;;;;;;0.20;0.20;;;17.70;99.90;;;;;;5051590;28;20463;-81
2023/08/20 06:30:37;;;;;;;0.20;0.20;;;17.80;99.90;;;;;;5051957;28;20137;-77
2023/08/20 06:33:03;;;;;;;0.13;0.13;;;17.80;99.90;;;;;;5059799;28;20116;-77
2023/08/20 06:35:29;;;;;;;0.10;0.10;;;17.90;99.90;;;;;;5052987;28;20504;-76
2023/08/20 06:37:55;;;;;;;0.17;0.17;;;17.90;99.90;;;;;;5052226;28;20090;-77
2023/08/20 06:40:21;;;;;;;0.20;0.20;;;18.00;99.90;;;;;;5065627;28;20058;-78
2023/08/20 06:42:46;;;;;;;0.20;0.20;;;18.00;99.90;;;;;;5055214;28;20040;-79
2023/08/20 06:45:12;;;;;;;0.13;0.13;;;18.10;99.90;;;;;;5072450;28;20476;-79
2023/08/20 06:47:38;;;;;;;0.20;0.20;;;18.20;99.90;;;;;;5053811;28;20044;-79
2023/08/20 06:50:06;;;;;;;0.20;0.20;;;18.20;99.90;;;;;;5053054;28;20036;-78
2023/08/20 06:52:31;;;;;;;0.10;0.10;;;18.30;99.90;;;;;;5054849;28;20067;-79
2023/08/20 06:54:57;;;;;;;0.10;0.10;;;18.30;99.90;;;;;;5050980;28;20068;-79
2023/08/20 06:57:23;;;;;;;0.20;0.20;;;18.40;99.90;;;;;;5047969;28;20083;-79
2023/08/20 06:59:48;;;;;;;0.10;0.10;;;18.40;99.90;;;;;;5043078;28;20056;-78
2023/08/20 07:02:14;;;;;;;0.10;0.10;;;18.50;99.90;;;;;;5070518;28;20040;-79
2023/08/20 07:04:40;;;;;;;0.20;0.20;;;18.50;99.90;;;;;;5071905;28;20120;-79
2023/08/20 07:07:05;;;;;;;0.20;0.20;;;18.50;99.90;;;;;;5050754;28;20025;-79
2023/08/20 07:09:31;;;;;;;0.20;0.20;;;18.60;99.90;;;;;;5049131;28;20094;-78
2023/08/20 07:11:57;;;;;;;0.20;0.20;;;18.70;99.90;;;;;;5046536;28;20040;-80
2023/08/20 07:14:22;;;;;;;0.20;0.20;;;18.70;99.90;;;;;;5047363;28;20057;-79
2023/08/20 07:16:48;;;;;;;0.20;0.20;;;18.70;99.90;;;;;;5058891;28;20045;-79
2023/08/20 07:19:14;;;;;;;0.20;0.20;;;18.80;99.90;;;;;;5042308;28;20392;-79
2023/08/20 07:21:39;;;;;;;0.20;0.20;;;18.80;99.90;;;;;;5042259;28;20094;-79
2023/08/20 07:24:05;;;;;;;0.20;0.20;;;18.90;99.90;;;;;;5057648;28;20078;-79
2023/08/20 07:26:31;;;;;;;0.10;0.10;;;18.90;99.90;;;;;;5048509;28;20037;-79
2023/08/20 07:28:57;;;;;;;0.20;0.20;;;19.00;99.90;;;;;;5044473;28;20040;-79
2023/08/20 07:31:33;;;;;;;0.20;0.20;;;19.00;99.90;;;;;;5061418;28;20040;-79
2023/08/20 07:34:00;;;;;;;0.20;0.20;;;19.10;99.90;;;;;;5041626;28;20610;-77
2023/08/20 07:36:26;;;;;;;0.20;0.20;;;19.20;99.90;;;;;;5043484;28;20166;-79
2023/08/20 07:38:55;;;;;;;0.10;0.10;;;19.20;99.90;;;;;;5059499;28;20029;-78
2023/08/20 07:41:21;;;;;;;0.20;0.20;;;19.20;99.90;;;;;;5063695;28;20049;-80
2023/08/20 07:43:48;;;;;;;0.20;0.20;;;19.30;99.90;;;;;;5050475;28;20036;-79
2023/08/20 07:46:14;;;;;;;0.20;0.20;;;19.40;99.90;;;;;;5041889;28;20075;-79
2023/08/20 07:48:40;;;;;;;0.10;0.10;;;19.40;99.90;;;;;;5048814;28;20036;-79
2023/08/20 07:51:06;;;;;;;0.20;0.20;;;19.40;99.90;;;;;;5046303;28;20060;-79
2023/08/20 07:53:32;;;;;;;0.20;0.20;;;19.50;99.90;;;;;;5049410;28;20547;-79
2023/08/20 07:55:59;;;;;;;0.20;0.20;;;19.60;99.90;;;;;;5048509;28;20174;-79
2023/08/20 07:58:25;;;;;;;0.20;0.20;;;19.60;99.90;;;;;;5037961;28;20048;-78
2023/08/20 08:00:51;;;;;;;0.20;0.20;;;19.70;99.90;;;;;;5053101;28;20044;-79
2023/08/20 08:03:17;;;;;;;0.20;0.20;;;19.70;99.90;;;;;;5037738;28;20045;-79
2023/08/20 08:05:52;;;;;;;0.20;0.20;;;19.80;99.90;;;;;;5034550;28;20147;-79
2023/08/20 08:08:18;;;;;;;0.20;0.20;;;19.80;99.90;;;;;;5034316;28;20512;-78
2023/08/20 08:10:45;;;;;;;0.20;0.20;;;19.90;99.90;;;;;;5064745;28;20112;-79
2023/08/20 08:13:16;;;;;;;0.17;0.17;;;19.90;99.90;;;;;;5053082;28;20392;-79
2023/08/20 08:15:42;;;;;;;0.20;0.20;;;20.00;99.90;;;;;;5052761;28;20565;-79
2023/08/20 08:18:07;;;;;;;0.20;0.20;;;20.00;99.90;;;;;;5047648;28;20095;-78
2023/08/20 08:20:33;;;;;;;0.20;0.20;;;20.10;99.90;;;;;;5033553;28;20179;-78
2023/08/20 08:22:59;;;;;;;0.20;0.20;;;20.10;99.90;;;;;;5049847;28;20044;-78
2023/08/20 08:25:25;;;;;;;0.20;0.20;;;20.20;99.90;;;;;;5032927;28;20450;-78
2023/08/20 08:27:51;;;;;;;0.20;0.20;;;20.20;99.90;;;;;;5047168;28;20048;-79
2023/08/20 08:30:17;;;;;;;0.20;0.20;;;20.30;99.90;;;;;;5033322;28;20405;-78
2023/08/20 08:32:42;;;;;;;0.20;0.20;;;20.40;99.90;;;;;;5064628;28;20072;-78
2023/08/20 08:35:08;;;;;;;0.10;0.10;;;20.40;99.90;;;;;;5052120;28;20048;-78
2023/08/20 08:37:34;;;;;;;0.20;0.20;;;20.50;99.90;;;;;;5068770;28;20036;-78
2023/08/20 08:40:00;;;;;;;0.20;0.20;;;20.60;99.90;;;;;;5048773;28;20045;-78
2023/08/20 08:42:25;;;;;;;0.15;0.15;;;20.60;99.90;;;;;;5061937;28;20040;-78
2023/08/20 08:44:52;;;;;;;0.20;0.20;;;20.70;99.90;;;;;;5053307;28;20053;-78
2023/08/20 08:47:22;;;;;;;0.20;0.20;;;20.70;99.90;;;;;;5069544;28;20037;-78
2023/08/20 08:49:48;;;;;;;0.20;0.20;;;20.80;99.90;;;;;;5071597;28;20094;-78
2023/08/20 08:52:15;;;;;;;0.20;0.20;;;20.90;99.90;;;;;;5070090;28;20047;-77
2023/08/20 08:54:41;;;;;;;0.20;0.20;;;20.90;99.90;;;;;;5071207;28;20095;-78
2023/08/20 08:57:07;;;;;;;0.20;0.20;;;21.00;99.90;;;;;;5069254;28;20087;-78
2023/08/20 08:59:33;;;;;;;0.20;0.20;;;21.00;99.90;;;;;;5070231;28;20044;-78
2023/08/20 09:01:59;;;;;;;0.20;0.20;;;21.10;99.90;;;;;;5042968;28;20055;-78
2023/08/20 09:04:27;;;;;;;0.20;0.20;;;21.20;99.90;;;;;;5032515;28;20118;-79
2023/08/20 09:06:55;;;;;;;0.25;0.25;;;21.20;99.90;;;;;;5058665;28;20039;-78
2023/08/20 09:09:21;;;;;;;0.20;0.20;;;21.30;99.90;;;;;;5051873;28;20090;-78
2023/08/20 09:11:48;;;;;;;0.20;0.20;;;21.30;99.90;;;;;;5052415;28;20048;-77
2023/08/20 09:14:27;;;;;;;0.20;0.20;;;21.40;99.90;;;;;;5069944;28;20112;-78
2023/08/20 09:17:01;;;;;;;0.20;0.20;;;21.40;99.90;;;;;;5045006;28;20048;-77
2023/08/20 09:19:34;;;;;;;0.20;0.20;;;21.50;99.90;;;;;;5042108;28;20123;-77
2023/08/20 09:22:00;;;;;;;0.20;0.20;;;21.50;99.90;;;;;;5050334;28;20040;-77
2023/08/20 09:24:52;;;;;;;0.20;0.20;;;21.60;99.90;;;;;;5070694;28;20051;-77
2023/08/20 09:27:18;;;;;;;;;;;21.60;99.90;;;;;;5069947;28;20128;-78
2023/08/20 09:29:48;;;;;;;0.20;0.20;;;21.70;99.90;;;;;;5069065;28;20003;-78
2023/08/20 09:32:19;;;;;;;0.20;0.20;;;22.00;99.90;;;;;;5052081;28;20094;-77
2023/08/20 09:34:45;;;;;;;0.10;0.10;;;21.80;99.90;;;;;;5069570;28;20044;-78
2023/08/20 09:37:15;;;;;;;0.20;0.20;;;21.80;99.90;;;;;;5068542;28;20047;-78
2023/08/20 09:39:41;;;;;;;0.20;0.20;;;21.90;99.90;;;;;;5048232;28;20049;-77
2023/08/20 09:42:08;;;;;;;0.20;0.20;;;22.00;99.90;;;;;;5040020;28;20048;-77
2023/08/20 09:44:37;;;;;;;0.20;0.20;;;22.00;99.90;;;;;;5069996;28;20416;-76
2023/08/20 09:47:06;;;;;;;0.20;0.20;;;22.10;99.90;;;;;;5051657;28;20546;-76
2023/08/20 09:49:39;;;;;;;0.20;0.20;;;22.10;99.90;;;;;;5068255;28;20048;-76
2023/08/20 09:52:07;;;;;;;0.20;0.20;;;22.20;99.90;;;;;;5051291;28;20052;-76
2023/08/20 09:55:10;;;;;;;0.20;0.20;;;22.30;99.90;;;;;;5070283;28;20126;-76
2023/08/20 09:57:38;;;;;;;0.20;0.20;;;22.30;99.90;;;;;;5066633;28;20125;-78
2023/08/20 10:00:09;;;;;;;0.10;0.10;;;22.30;99.90;;;;;;5050641;28;20498;-76
2023/08/20 10:02:35;;;;;;;0.20;0.20;;;22.40;99.90;;;;;;5038209;28;20448;-76
2023/08/20 10:05:04;;;;;;;0.20;0.20;;;22.50;99.90;;;;;;5049795;28;20167;-76
2023/08/20 10:07:33;;;;;;;0.20;0.20;;;22.70;99.90;;;;;;5051202;28;20040;-76
2023/08/20 10:10:00;;;;;;;0.20;0.20;;;22.70;99.90;;;;;;5068344;28;20536;-76
2023/08/20 10:12:28;;;;;;;0.20;0.20;;;22.80;99.90;;;;;;5069409;28;20051;-77
2023/08/20 10:14:55;;;;;;;0.20;0.20;;;22.80;99.90;;;;;;5068921;28;20075;-76
2023/08/20 10:17:22;;;;;;;0.20;0.20;;;22.90;99.90;;;;;;5046717;28;20520;-76
2023/08/20 10:19:48;;;;;;;0.20;0.20;;;22.90;99.90;;;;;;5049811;28;20045;-76
2023/08/20 10:22:14;;;;;;;0.20;0.20;;;23.00;99.90;;;;;;5046745;28;20051;-76
2023/08/20 10:24:52;;;;;;;0.20;0.20;;;23.00;99.90;;;;;;5069678;28;20043;-76
2023/08/20 10:27:31;;;;;;;0.20;0.20;;;23.10;99.90;;;;;;5051046;28;20498;-76
2023/08/20 10:29:59;;;;;;;0.20;0.20;;;23.10;99.90;;;;;;5050332;28;20048;-76
2023/08/20 10:32:43;;;;;;;0.20;0.20;;;23.20;99.90;;;;;;5046665;28;20033;-76
2023/08/20 10:35:09;;;;;;;0.20;0.20;;;23.30;99.90;;;;;;5033869;28;20496;-77
2023/08/20 10:37:36;;;;;;;0.20;0.20;;;23.30;99.90;;;;;;5039690;28;20036;-75
2023/08/20 10:40:02;;;;;;;0.20;0.20;;;23.40;99.90;;;;;;5068258;28;20044;-77
2023/08/20 10:42:29;;;;;;;0.20;0.20;;;23.50;99.90;;;;;;5050476;28;20135;-77
2023/08/20 10:44:59;;;;;;;0.20;0.20;;;23.50;99.90;;;;;;5050397;28;20179;-77
2023/08/20 10:47:25;;;;;;;0.30;0.30;;;23.50;99.90;;;;;;5051069;28;20047;-76
2023/08/20 10:49:54;;;;;;;0.20;0.20;;;23.50;99.90;;;;;;5068506;28;20080;-76
2023/08/20 10:52:23;;;;;;;0.20;0.20;;;23.50;99.90;;;;;;5047535;28;20082;-76
2023/08/20 10:54:52;;;;;;;0.20;0.20;;;23.60;99.90;;;;;;5057301;28;20045;-77
2023/08/20 10:57:21;;;;;;;0.20;0.20;;;23.70;99.90;;;;;;5051896;28;20068;-78
2023/08/20 10:59:58;;;;;;;0.20;0.20;;;23.80;99.90;;;;;;5060108;28;20078;-77
2023/08/20 11:02:24;;;;;;;0.20;0.20;;;23.80;99.90;;;;;;5060111;28;20049;-78
2023/08/20 11:04:51;;;;;;;0.20;0.20;;;23.80;99.90;;;;;;5035338;28;20127;-77
2023/08/20 11:07:18;;;;;;;0.20;0.20;;;23.80;99.90;;;;;;5047662;28;20044;-77
2023/08/20 11:09:46;;;;;;;0.20;0.20;;;23.80;99.90;;;;;;5070322;28;20480;-77
2023/08/20 11:12:15;;;;;;;0.20;0.20;;;23.80;99.90;;;;;;5072065;28;20435;-77
2023/08/20 11:14:40;;;;;;;0.20;0.20;;;23.80;99.90;;;;;;5053791;28;20060;-77
2023/08/20 11:17:07;;;;;;;0.10;0.10;;;23.80;99.90;;;;;;5054410;28;20052;-77
2023/08/20 11:19:33;;;;;;;0.20;0.20;;;24.00;99.90;;;;;;5054690;28;20056;-77
2023/08/20 11:21:59;;;;;;;0.20;0.20;;;24.00;99.90;;;;;;5051833;28;20098;-77
2023/08/20 11:24:29;;;;;;;0.20;0.20;;;24.20;99.90;;;;;;5071363;28;20035;-77
2023/08/20 11:26:55;;;;;;;0.20;0.20;;;24.30;99.90;;;;;;5050515;28;20624;-78
2023/08/20 11:29:21;;;;;;;0.20;0.20;;;24.30;99.90;;;;;;5052007;28;20045;-77
2023/08/20 11:31:47;;;;;;;0.20;0.20;;;24.40;99.90;;;;;;5044009;28;20043;-77
2023/08/20 11:34:13;;;;;;;0.10;0.10;;;24.40;99.90;;;;;;5054088;28;20040;-77
2023/08/20 11:36:40;;;;;;;0.20;0.20;;;24.40;99.90;;;;;;5053124;28;20048;-77
2023/08/20 11:39:07;;;;;;;0.20;0.20;;;24.40;99.90;;;;;;5073167;28;20400;-77
2023/08/20 11:41:37;;;;;;;0.20;0.20;;;24.50;99.90;;;;;;5052636;28;20136;-77
2023/08/20 11:44:03;;;;;;;0.20;0.20;;;24.60;99.90;;;;;;5053522;28;20047;-75
2023/08/20 11:46:29;;;;;;;0.20;0.20;;;24.70;99.90;;;;;;5049482;28;20065;-77
2023/08/20 11:49:00;;;;;;;0.20;0.20;;;24.80;99.90;;;;;;5033805;28;20045;-77
2023/08/20 11:51:26;;;;;;;0.20;0.20;;;24.90;99.90;;;;;;5044712;28;20102;-78
2023/08/20 11:53:52;;;;;;;0.20;0.20;;;25.10;99.90;;;;;;5034991;28;20037;-77
2023/08/20 11:56:18;;;;;;;0.10;0.10;;;25.20;99.90;;;;;;5035281;28;20094;-76
2023/08/20 11:58:49;;;;;;;0.20;0.20;;;25.20;99.90;;;;;;5034170;28;20550;-77
2023/08/20 12:01:14;;;;;;;0.20;0.20;;;25.30;99.90;;;;;;5055214;28;20134;-77
2023/08/20 12:03:40;;;;;;;0.20;0.20;;;25.30;99.90;;;;;;5070745;28;20519;-77
2023/08/20 12:06:19;;;;;;;0.20;0.20;;;25.30;99.90;;;;;;5071078;28;20044;-78
2023/08/20 12:08:45;;;;;;;0.20;0.20;;;25.40;99.90;;;;;;5071194;28;20044;-77
2023/08/20 12:11:11;;;;;;;0.20;0.20;;;25.50;99.90;;;;;;5052252;28;20048;-77
2023/08/20 12:13:36;;;;;;;0.20;0.20;;;25.50;99.90;;;;;;5067218;28;20067;-77
2023/08/20 12:16:02;;;;;;;0.20;0.20;;;25.50;99.90;;;;;;5051242;28;20080;-77
2023/08/20 12:18:29;;;;;;;0.20;0.20;;;25.50;99.90;;;;;;5070497;28;20099;-77
2023/08/20 12:20:55;;;;;;;0.10;0.10;;;25.50;99.90;;;;;;5052660;28;20098;-77
2023/08/20 12:23:21;;;;;;;0.20;0.20;;;25.80;99.90;;;;;;5053542;28;20048;-78
2023/08/20 12:25:51;;;;;;;0.20;0.20;;;25.90;99.90;;;;;;5070299;28;20047;-78
2023/08/20 12:28:17;;;;;;;0.20;0.20;;;26.10;99.90;;;;;;5053644;28;20041;-78
2023/08/20 12:30:44;;;;;;;0.20;0.20;;;26.30;99.90;;;;;;5051033;28;20464;-78
2023/08/20 12:33:10;;;;;;;0.20;0.20;;;26.50;99.90;;;;;;5053099;28;20396;-78
2023/08/20 12:35:36;;;;;;;0.20;0.20;;;26.70;99.90;;;;;;5052295;28;20055;-77
2023/08/20 12:38:02;;;;;;;0.20;0.20;;;26.90;99.90;;;;;;5052129;28;20048;-78
2023/08/20 12:40:29;;;;;;;0.20;0.20;;;27.00;99.90;;;;;;5053309;28;20080;-78
2023/08/20 12:42:54;;;;;;;0.20;0.20;;;27.30;99.90;;;;;;5051245;28;20147;-78
2023/08/20 12:45:20;;;;;;;0.10;0.10;;;27.50;99.90;;;;;;5069729;28;20457;-78
2023/08/20 12:47:46;;;;;;;0.20;0.20;;;27.60;99.90;;;;;;5070676;28;20179;-75